createdAt,value
2022-10-09T00:01:33.366Z,40.22
2022-10-09T00:04:21.898Z,40.24
2022-10-09T00:07:11.636Z,39.97
2022-10-09T00:10:00.084Z,40.31
2022-10-09T00:12:48.763Z,40.00
2022-10-09T00:15:40.341Z,39.90
2022-10-09T00:18:28.762Z,40.03
2022-10-09T00:21:20.463Z,40.35
2022-10-09T00:24:10.959Z,40.25
2022-10-09T00:26:59.576Z,40.14
2022-10-09T00:29:47.971Z,40.06
2022-10-09T00:32:36.440Z,40.35
2022-10-09T00:35:25.105Z,40.11
2022-10-09T00:38:14.018Z,40.02
2022-10-09T00:41:05.726Z,40.22
2022-10-09T00:43:55.875Z,40.21
2022-10-09T00:46:47.734Z,40.38
2022-10-09T00:49:36.473Z,40.18
2022-10-09T00:52:25.604Z,40.32
2022-10-09T00:55:14.371Z,40.32
2022-10-09T00:58:04.334Z,39.99
2022-10-09T01:00:52.814Z,40.33
2022-10-09T01:03:42.081Z,40.30
2022-10-09T01:06:40.670Z,40.05
2022-10-09T01:09:35.778Z,39.82
2022-10-09T01:12:33.101Z,40.32
2022-10-09T01:15:28.054Z,40.08
2022-10-09T01:18:21.419Z,40.14
2022-10-09T01:21:12.414Z,40.25
2022-10-09T01:24:10.442Z,40.26
2022-10-09T01:27:06.296Z,40.33
2022-10-09T01:29:57.596Z,40.12
2022-10-09T01:32:48.890Z,40.29
2022-10-09T01:35:37.496Z,40.24
2022-10-09T01:38:26.146Z,40.01
2022-10-09T01:41:14.649Z,40.19
2022-10-09T01:44:04.497Z,40.07
2022-10-09T01:46:53.365Z,40.41
2022-10-09T01:49:45.774Z,40.34
2022-10-09T01:52:43.022Z,40.25
2022-10-09T01:55:37.889Z,39.90
2022-10-09T01:58:31.086Z,40.16
2022-10-09T02:01:23.369Z,40.36
2022-10-09T02:04:13.593Z,40.16
2022-10-09T02:07:01.963Z,40.13
2022-10-09T02:09:50.473Z,40.28
2022-10-09T02:12:41.004Z,40.14
2022-10-09T02:15:33.457Z,40.04
2022-10-09T02:18:28.021Z,40.11
2022-10-09T02:21:18.112Z,40.35
2022-10-09T02:24:08.563Z,40.13
2022-10-09T02:26:57.751Z,40.29
2022-10-09T02:29:49.567Z,40.34
2022-10-09T02:32:38.016Z,40.46
2022-10-09T02:35:27.975Z,40.04
2022-10-09T02:38:20.759Z,40.36
2022-10-09T02:41:09.275Z,40.59
2022-10-09T02:43:57.801Z,40.20
2022-10-09T02:46:46.276Z,40.46
2022-10-09T02:49:34.836Z,40.24
2022-10-09T02:52:24.600Z,40.43
2022-10-09T02:55:13.059Z,40.48
2022-10-09T02:58:01.463Z,40.17
2022-10-09T03:00:50.225Z,40.41
2022-10-09T03:03:38.762Z,40.57
2022-10-09T03:06:28.279Z,40.25
2022-10-09T03:09:18.203Z,40.25
2022-10-09T03:12:06.935Z,39.99
2022-10-09T03:14:55.305Z,40.15
2022-10-09T03:17:43.762Z,40.26
2022-10-09T03:20:32.414Z,40.21
2022-10-09T03:23:20.889Z,40.15
2022-10-09T03:26:12.252Z,40.01
2022-10-09T03:29:00.672Z,40.30
2022-10-09T03:31:53.311Z,40.45
2022-10-09T03:34:42.098Z,40.11
2022-10-09T03:37:33.875Z,40.40
2022-10-09T03:40:22.348Z,40.49
2022-10-09T03:43:12.127Z,40.22
2022-10-09T03:46:01.244Z,40.23
2022-10-09T03:48:49.756Z,40.19
2022-10-09T03:51:38.221Z,40.09
2022-10-09T03:54:26.720Z,40.18
2022-10-09T03:57:16.616Z,40.10
2022-10-09T04:00:07.907Z,40.37
2022-10-09T04:02:56.392Z,40.26
2022-10-09T04:05:44.901Z,40.27
2022-10-09T04:08:33.366Z,40.10
2022-10-09T04:11:21.940Z,40.16
2022-10-09T04:14:10.805Z,40.06
2022-10-09T04:17:00.624Z,39.94
2022-10-09T04:19:49.113Z,39.96
2022-10-09T04:22:37.507Z,40.28
2022-10-09T04:25:26.173Z,40.15
2022-10-09T04:28:14.829Z,39.97
2022-10-09T04:31:03.323Z,40.34
2022-10-09T04:33:56.303Z,40.28
2022-10-09T04:36:44.861Z,40.14
2022-10-09T04:39:33.337Z,40.12
2022-10-09T04:42:21.738Z,40.19
2022-10-09T04:45:11.496Z,40.06
2022-10-09T04:47:59.944Z,40.03
2022-10-09T04:50:49.865Z,40.18
2022-10-09T04:53:39.085Z,40.21
2022-10-09T04:56:27.513Z,39.97
2022-10-09T04:59:17.320Z,40.23
2022-10-09T05:02:05.818Z,40.22
2022-10-09T05:04:54.261Z,40.17
2022-10-09T05:07:44.030Z,39.99
2022-10-09T05:10:32.846Z,39.93
2022-10-09T05:13:21.324Z,40.03
2022-10-09T05:16:12.820Z,40.09
2022-10-09T05:19:01.608Z,40.05
2022-10-09T05:21:50.302Z,40.20
2022-10-09T05:24:42.253Z,39.95
2022-10-09T05:27:30.713Z,39.91
2022-10-09T05:30:20.476Z,39.73
2022-10-09T05:33:08.925Z,39.93
2022-10-09T05:36:02.306Z,40.00
2022-10-09T05:38:50.911Z,39.90
2022-10-09T05:41:40.764Z,39.92
2022-10-09T05:44:30.743Z,40.12
2022-10-09T05:47:20.588Z,40.14
2022-10-09T05:50:11.886Z,40.17
2022-10-09T05:53:00.269Z,40.05
2022-10-09T05:55:48.649Z,40.11
2022-10-09T05:58:38.471Z,40.15
2022-10-09T06:01:28.506Z,40.18
2022-10-09T06:04:18.733Z,40.26
2022-10-09T06:07:08.337Z,40.18
2022-10-09T06:09:56.875Z,40.23
2022-10-09T06:12:45.276Z,40.09
2022-10-09T06:15:35.111Z,40.40
2022-10-09T06:18:23.597Z,40.33
2022-10-09T06:21:12.023Z,40.39
2022-10-09T06:24:01.972Z,40.35
2022-10-09T06:26:50.367Z,40.20
2022-10-09T06:29:38.869Z,40.33
2022-10-09T06:32:28.745Z,40.47
2022-10-09T06:35:17.359Z,40.16
2022-10-09T06:38:05.877Z,40.36
2022-10-09T06:40:54.286Z,40.11
2022-10-09T06:43:43.287Z,40.59
2022-10-09T06:46:33.892Z,40.25
2022-10-09T06:49:23.750Z,40.35
2022-10-09T06:52:12.149Z,40.06
2022-10-09T06:55:00.644Z,40.33
2022-10-09T06:57:49.098Z,40.24
2022-10-09T07:00:37.571Z,40.20
2022-10-09T07:03:25.954Z,40.35
2022-10-09T07:06:19.527Z,40.24
2022-10-09T07:09:09.919Z,40.08
2022-10-09T07:11:58.363Z,40.11
2022-10-09T07:14:46.933Z,40.08
2022-10-09T07:17:35.798Z,40.34
2022-10-09T07:20:24.404Z,40.23
2022-10-09T07:23:14.376Z,40.13
2022-10-09T07:26:03.695Z,40.08
2022-10-09T07:28:52.398Z,39.86
2022-10-09T07:31:41.116Z,39.98
2022-10-09T07:34:29.653Z,40.06
2022-10-09T07:37:18.228Z,40.11
2022-10-09T07:40:09.119Z,40.17
2022-10-09T07:43:00.743Z,40.03
2022-10-09T07:45:49.512Z,40.37
2022-10-09T07:48:38.074Z,40.48
2022-10-09T07:51:27.737Z,40.09
2022-10-09T07:54:16.297Z,40.33
2022-10-09T07:57:06.892Z,40.47
2022-10-09T07:59:55.712Z,40.20
2022-10-09T08:02:44.341Z,40.20
2022-10-09T08:05:32.835Z,37.85
2022-10-09T08:08:21.247Z,36.75
2022-10-09T08:11:11.087Z,36.01
2022-10-09T08:14:00.987Z,35.79
2022-10-09T08:16:50.021Z,36.31
2022-10-09T08:19:38.460Z,36.83
2022-10-09T08:22:26.968Z,37.61
2022-10-09T08:25:15.445Z,37.43
2022-10-09T08:28:04.448Z,37.80
2022-10-09T08:30:54.415Z,37.61
2022-10-09T08:33:43.784Z,37.67
2022-10-09T08:36:32.672Z,37.71
2022-10-09T08:39:21.179Z,37.78
2022-10-09T08:42:19.712Z,37.97
2022-10-09T08:45:14.271Z,37.82
2022-10-09T08:48:06.461Z,38.00
2022-10-09T08:50:56.376Z,38.30
2022-10-09T08:53:49.694Z,38.67
2022-10-09T08:56:39.275Z,38.54
2022-10-09T08:59:27.889Z,38.45
2022-10-09T09:02:30.832Z,38.54
2022-10-09T09:05:30.557Z,37.94
2022-10-09T09:08:24.670Z,38.37
2022-10-09T09:11:21.859Z,38.14
2022-10-09T09:14:21.237Z,38.45
2022-10-09T09:17:14.070Z,39.51
2022-10-09T09:20:11.501Z,39.83
2022-10-09T09:23:03.117Z,39.08
2022-10-09T09:25:51.600Z,38.86
2022-10-09T09:28:41.374Z,39.21
2022-10-09T09:31:35.533Z,39.64
2022-10-09T09:34:28.568Z,39.21
2022-10-09T09:37:17.280Z,39.43
2022-10-09T09:40:35.633Z,38.98
2022-10-09T09:43:19.431Z,39.22
2022-10-09T09:46:16.053Z,39.28
2022-10-09T09:49:09.307Z,39.71
2022-10-09T09:52:00.088Z,38.82
2022-10-09T09:54:49.960Z,38.41
2022-10-09T09:57:44.402Z,38.31
2022-10-09T10:00:33.227Z,39.14
2022-10-09T10:03:21.761Z,39.72
2022-10-09T10:06:23.356Z,39.84
2022-10-09T10:09:15.841Z,40.20
2022-10-09T10:12:06.032Z,39.29
2022-10-09T10:14:55.850Z,36.63
2022-10-09T10:17:44.311Z,36.97
2022-10-09T10:20:34.145Z,38.91
2022-10-09T10:23:33.046Z,38.80
2022-10-09T10:26:25.947Z,39.23
2022-10-09T10:29:18.447Z,38.56
2022-10-09T10:32:12.953Z,39.13
2022-10-09T10:35:04.964Z,39.30
2022-10-09T10:37:57.969Z,39.47
2022-10-09T10:40:52.469Z,39.82
2022-10-09T10:43:44.106Z,39.07
2022-10-09T10:46:34.187Z,36.82
2022-10-09T10:49:26.858Z,38.45
2022-10-09T10:52:26.348Z,38.81
2022-10-09T10:55:29.089Z,37.76
2022-10-09T10:58:25.614Z,37.96
2022-10-09T11:01:24.512Z,38.36
2022-10-09T11:04:32.777Z,36.68
2022-10-09T11:07:26.913Z,37.57
2022-10-09T11:10:23.715Z,35.96
2022-10-09T11:13:15.811Z,36.94
2022-10-09T11:16:20.988Z,37.01
2022-10-09T11:19:22.985Z,37.51
2022-10-09T11:22:22.477Z,36.46
2022-10-09T11:25:21.285Z,36.02
2022-10-09T11:28:14.620Z,38.53
2022-10-09T11:31:10.053Z,38.57
2022-10-09T11:34:02.160Z,37.87
2022-10-09T11:36:53.539Z,36.43
2022-10-09T11:39:43.637Z,35.00
2022-10-09T11:42:32.461Z,35.55
2022-10-09T11:45:24.327Z,35.93
2022-10-09T11:48:19.925Z,34.12
2022-10-09T11:51:14.343Z,33.53
2022-10-09T11:54:04.795Z,32.84
2022-10-09T11:57:05.164Z,32.57
2022-10-09T12:00:05.609Z,33.98
2022-10-09T12:02:58.883Z,32.78
2022-10-09T12:05:48.397Z,33.83
2022-10-09T12:08:38.313Z,33.18
2022-10-09T12:11:27.029Z,33.38
2022-10-09T12:14:26.873Z,32.89
2022-10-09T12:17:31.225Z,32.42
2022-10-09T12:20:22.168Z,32.86
2022-10-09T12:23:26.291Z,33.45
2022-10-09T12:26:16.019Z,32.24
2022-10-09T12:29:05.826Z,32.15
2022-10-09T12:31:58.581Z,32.70
2022-10-09T12:34:49.453Z,32.65
2022-10-09T12:37:38.344Z,32.68
2022-10-09T12:40:29.452Z,33.19
2022-10-09T12:43:19.700Z,33.61
2022-10-09T12:46:08.174Z,33.76
2022-10-09T12:48:58.181Z,34.50
2022-10-09T12:51:55.307Z,34.35
2022-10-09T12:54:46.295Z,34.35
2022-10-09T12:57:34.786Z,34.57
2022-10-09T13:00:23.393Z,33.40
2022-10-09T13:03:25.827Z,33.11
2022-10-09T13:06:20.363Z,33.10
2022-10-09T13:09:19.762Z,33.09
2022-10-09T13:12:13.967Z,33.02
2022-10-09T13:15:03.787Z,32.74
2022-10-09T13:17:52.530Z,32.91
2022-10-09T13:20:41.227Z,32.76
2022-10-09T13:23:34.190Z,32.21
2022-10-09T13:26:28.808Z,32.55
2022-10-09T13:29:17.337Z,32.98
2022-10-09T13:32:06.956Z,32.58
2022-10-09T13:34:58.519Z,32.57
2022-10-09T13:37:47.908Z,32.84
2022-10-09T13:40:38.106Z,32.44
2022-10-09T13:43:30.580Z,32.81
2022-10-09T13:46:19.057Z,32.90
2022-10-09T13:49:07.597Z,32.70
2022-10-09T13:51:57.143Z,33.37
2022-10-09T13:54:47.840Z,32.93
2022-10-09T13:57:37.596Z,32.89
2022-10-09T14:00:26.078Z,33.28
2022-10-09T14:03:14.553Z,33.30
2022-10-09T14:06:06.785Z,33.22
2022-10-09T14:08:56.464Z,34.13
2022-10-09T14:11:44.909Z,34.36
2022-10-09T14:14:34.815Z,34.50
2022-10-09T14:17:23.210Z,34.58
2022-10-09T14:20:13.578Z,34.32
2022-10-09T14:23:02.012Z,34.05
2022-10-09T14:25:53.145Z,33.96
2022-10-09T14:28:41.822Z,33.91
2022-10-09T14:31:32.190Z,33.73
2022-10-09T14:34:22.361Z,34.22
2022-10-09T14:37:23.931Z,34.26
2022-10-09T14:40:24.536Z,34.38
2022-10-09T14:43:13.455Z,34.18
2022-10-09T14:46:09.580Z,33.65
2022-10-09T14:48:59.363Z,33.60
2022-10-09T14:51:47.751Z,33.62
2022-10-09T14:54:37.101Z,33.06
2022-10-09T14:57:25.556Z,32.77
2022-10-09T15:00:17.530Z,33.03
2022-10-09T15:03:07.338Z,33.06
2022-10-09T15:05:59.958Z,33.03
2022-10-09T15:08:48.352Z,33.40
2022-10-09T15:11:37.713Z,32.91
2022-10-09T15:14:26.261Z,33.00
2022-10-09T15:17:17.783Z,32.79
2022-10-09T15:20:06.775Z,32.78
2022-10-09T15:22:56.655Z,32.88
2022-10-09T15:25:51.681Z,33.01
2022-10-09T15:28:41.855Z,33.14
2022-10-09T15:31:34.209Z,32.89
2022-10-09T15:34:22.634Z,33.28
2022-10-09T15:37:13.363Z,32.86
2022-10-09T15:40:03.457Z,32.63
2022-10-09T15:42:53.509Z,32.61
2022-10-09T15:45:42.081Z,32.76
2022-10-09T15:48:30.969Z,32.69
2022-10-09T15:51:19.704Z,32.01
2022-10-09T15:54:15.467Z,32.46
2022-10-09T15:57:05.300Z,32.47
2022-10-09T15:59:53.748Z,32.56
2022-10-09T16:02:42.370Z,32.72
2022-10-09T16:05:30.985Z,32.63
2022-10-09T16:08:20.035Z,32.72
2022-10-09T16:11:09.856Z,32.99
2022-10-09T16:14:00.645Z,33.08
2022-10-09T16:16:53.658Z,32.94
2022-10-09T16:19:42.102Z,33.06
2022-10-09T16:22:30.508Z,33.44
2022-10-09T16:25:19.136Z,33.80
2022-10-09T16:28:08.617Z,33.60
2022-10-09T16:30:58.715Z,33.43
2022-10-09T16:33:47.155Z,33.42
2022-10-09T16:36:35.764Z,33.57
2022-10-09T16:39:24.252Z,34.07
2022-10-09T16:42:12.696Z,34.24
2022-10-09T16:45:02.055Z,34.35
2022-10-09T16:47:52.040Z,34.59
2022-10-09T16:50:42.860Z,34.70
2022-10-09T16:53:31.603Z,33.70
2022-10-09T16:56:21.940Z,33.09
2022-10-09T16:59:13.439Z,33.31
2022-10-09T17:02:03.252Z,33.19
2022-10-09T17:04:53.076Z,32.98
2022-10-09T17:07:41.531Z,32.89
2022-10-09T17:10:32.709Z,33.32
2022-10-09T17:13:23.803Z,32.96
2022-10-09T17:16:18.046Z,32.13
2022-10-09T17:19:07.337Z,32.41
2022-10-09T17:21:59.550Z,32.72
2022-10-09T17:24:48.046Z,32.00
2022-10-09T17:27:36.639Z,31.71
2022-10-09T17:30:26.647Z,31.87
2022-10-09T17:33:18.976Z,31.56
2022-10-09T17:36:08.852Z,31.44
2022-10-09T17:38:59.014Z,32.06
2022-10-09T17:41:49.137Z,32.44
2022-10-09T17:44:37.719Z,33.04
2022-10-09T17:47:29.655Z,33.46
2022-10-09T17:50:18.363Z,33.37
2022-10-09T17:53:08.728Z,33.85
2022-10-09T17:55:59.077Z,33.83
2022-10-09T17:58:49.463Z,33.91
2022-10-09T18:01:38.223Z,34.13
2022-10-09T18:04:29.122Z,34.26
2022-10-09T18:07:19.445Z,34.63
2022-10-09T18:10:08.923Z,34.81
2022-10-09T18:12:59.861Z,34.79
2022-10-09T18:15:48.529Z,34.96
2022-10-09T18:18:39.191Z,35.15
2022-10-09T18:21:27.793Z,35.18
2022-10-09T18:24:17.037Z,35.35
2022-10-09T18:27:05.662Z,35.36
2022-10-09T18:29:55.505Z,35.41
2022-10-09T18:32:43.917Z,35.29
2022-10-09T18:35:32.346Z,35.75
2022-10-09T18:38:23.310Z,35.46
2022-10-09T18:41:11.763Z,35.45
2022-10-09T18:44:01.131Z,35.34
2022-10-09T18:46:56.314Z,35.23
2022-10-09T18:49:47.127Z,35.40
2022-10-09T18:52:39.103Z,35.16
2022-10-09T18:55:30.759Z,35.00
2022-10-09T18:58:22.993Z,34.78
2022-10-09T19:01:11.887Z,34.91
2022-10-09T19:04:12.478Z,35.12
2022-10-09T19:07:01.769Z,35.12
2022-10-09T19:09:57.119Z,35.21
2022-10-09T19:12:48.834Z,35.19
2022-10-09T19:15:37.765Z,35.08
2022-10-09T19:18:26.887Z,35.12
2022-10-09T19:21:17.015Z,34.99
2022-10-09T19:24:06.999Z,34.83
2022-10-09T19:26:55.697Z,34.79
2022-10-09T19:29:44.099Z,34.84
2022-10-09T19:32:33.927Z,34.84
2022-10-09T19:35:25.685Z,34.80
2022-10-09T19:38:22.016Z,34.96
2022-10-09T19:41:12.107Z,35.00
2022-10-09T19:44:01.066Z,34.73
2022-10-09T19:46:49.645Z,34.85
2022-10-09T19:49:40.550Z,34.94
2022-10-09T19:52:29.019Z,35.02
2022-10-09T19:55:19.286Z,35.02
2022-10-09T19:58:08.550Z,34.99
2022-10-09T20:01:00.194Z,35.64
2022-10-09T20:03:50.911Z,36.05
2022-10-09T20:06:48.515Z,35.90
2022-10-09T20:09:37.055Z,35.88
2022-10-09T20:12:27.512Z,36.13
2022-10-09T20:15:15.998Z,36.41
2022-10-09T20:18:04.524Z,36.59
2022-10-09T20:20:53.021Z,36.75
2022-10-09T20:23:42.782Z,36.36
2022-10-09T20:26:34.188Z,36.18
2022-10-09T20:29:26.886Z,36.03
2022-10-09T20:32:15.340Z,35.85
2022-10-09T20:35:04.055Z,35.95
2022-10-09T20:37:52.586Z,35.55
2022-10-09T20:40:41.037Z,35.11
2022-10-09T20:43:29.467Z,35.09
2022-10-09T20:46:20.909Z,34.87
2022-10-09T20:49:14.660Z,34.94
2022-10-09T20:52:03.120Z,35.06
2022-10-09T20:54:51.578Z,35.29
2022-10-09T20:57:40.046Z,35.40
2022-10-09T21:00:28.619Z,35.31
2022-10-09T21:03:18.456Z,35.42
2022-10-09T21:06:08.659Z,35.07
2022-10-09T21:08:57.961Z,35.39
2022-10-09T21:11:46.714Z,35.29
2022-10-09T21:14:35.372Z,35.25
2022-10-09T21:17:23.831Z,35.20
2022-10-09T21:20:13.714Z,35.23
2022-10-09T21:23:06.994Z,35.16
2022-10-09T21:25:55.590Z,35.11
2022-10-09T21:28:45.044Z,34.88
2022-10-09T21:31:35.399Z,35.31
2022-10-09T21:34:24.860Z,35.05
2022-10-09T21:37:22.564Z,35.36
2022-10-09T21:40:11.727Z,35.71
2022-10-09T21:43:00.099Z,35.76
2022-10-09T21:45:51.417Z,35.90
2022-10-09T21:48:40.075Z,35.93
2022-10-09T21:51:29.036Z,35.95
2022-10-09T21:54:19.038Z,35.93
2022-10-09T21:57:07.600Z,35.88
2022-10-09T21:59:56.211Z,35.81
2022-10-09T22:02:44.701Z,35.79
2022-10-09T22:05:33.083Z,35.87
2022-10-09T22:08:21.686Z,35.99
2022-10-09T22:11:12.133Z,35.85
2022-10-09T22:14:00.542Z,36.11
2022-10-09T22:16:48.925Z,35.90
2022-10-09T22:19:37.450Z,35.87
2022-10-09T22:22:26.013Z,35.82
2022-10-09T22:25:14.485Z,35.54
2022-10-09T22:28:04.500Z,35.88
2022-10-09T22:31:03.643Z,35.49
2022-10-09T22:33:52.213Z,35.84
2022-10-09T22:36:40.595Z,36.24
2022-10-09T22:39:29.099Z,36.33
2022-10-09T22:42:17.811Z,36.03
2022-10-09T22:45:09.535Z,35.98
2022-10-09T22:47:58.110Z,36.17
2022-10-09T22:50:46.659Z,35.78
2022-10-09T22:53:35.733Z,36.16
2022-10-09T22:56:25.766Z,36.27
2022-10-09T22:59:17.915Z,36.35
2022-10-09T23:02:07.643Z,36.20
2022-10-09T23:04:56.355Z,36.52
2022-10-09T23:07:44.732Z,36.51
2022-10-09T23:10:33.193Z,36.59
2022-10-09T23:13:22.942Z,36.62
2022-10-09T23:16:13.127Z,36.79
2022-10-09T23:19:06.718Z,36.70
2022-10-09T23:21:55.673Z,36.64
2022-10-09T23:24:44.176Z,36.65
2022-10-09T23:27:32.614Z,36.91
2022-10-09T23:30:21.051Z,36.86
2022-10-09T23:33:16.813Z,36.96
2022-10-09T23:36:07.913Z,36.89
2022-10-09T23:38:57.005Z,36.81
2022-10-09T23:41:45.499Z,36.96
2022-10-09T23:44:33.919Z,37.17
2022-10-09T23:47:22.363Z,36.96
2022-10-09T23:50:11.026Z,36.87
2022-10-09T23:53:00.790Z,37.16
2022-10-09T23:55:49.475Z,37.06
2022-10-09T23:58:37.908Z,37.19
